createdAt,value
2019-04-25T00:02:36.768Z,8.68
2019-04-25T00:05:12.102Z,8.10
2019-04-25T00:07:47.130Z,9.50
2019-04-25T00:10:22.052Z,8.48
2019-04-25T00:12:56.588Z,7.92
2019-04-25T00:15:31.944Z,8.05
2019-04-25T00:18:06.948Z,7.92
2019-04-25T00:20:44.650Z,7.37
2019-04-25T00:23:21.615Z,7.03
2019-04-25T00:26:23.125Z,7.58
2019-04-25T00:28:57.631Z,8.48
2019-04-25T00:31:31.998Z,8.23
2019-04-25T00:34:07.282Z,8.68
2019-04-25T00:36:43.521Z,8.00
2019-04-25T00:39:17.857Z,8.48
2019-04-25T00:41:52.401Z,7.95
2019-04-25T00:44:26.816Z,8.05
2019-04-25T00:47:02.570Z,8.70
2019-04-25T00:49:37.294Z,7.80
2019-04-25T00:52:11.704Z,7.12
2019-04-25T00:54:46.267Z,7.97
2019-04-25T00:57:22.061Z,7.55
2019-04-25T01:00:26.698Z,6.83
2019-04-25T01:03:03.383Z,7.47
2019-04-25T01:05:37.882Z,7.33
2019-04-25T01:08:12.544Z,7.65
2019-04-25T01:10:47.894Z,7.20
2019-04-25T01:13:22.408Z,7.65
2019-04-25T01:15:56.341Z,6.65
2019-04-25T01:18:31.400Z,6.45
2019-04-25T01:21:06.321Z,6.75
2019-04-25T01:23:40.987Z,6.53
2019-04-25T01:26:15.524Z,6.95
2019-04-25T01:28:50.035Z,7.40
2019-04-25T01:31:25.230Z,7.72
2019-04-25T01:34:00.019Z,6.20
2019-04-25T01:36:48.630Z,6.40
2019-04-25T01:39:35.328Z,6.65
2019-04-25T01:42:43.806Z,6.17
2019-04-25T01:45:19.408Z,6.47
2019-04-25T01:47:54.955Z,6.78
2019-04-25T01:50:29.310Z,6.62
2019-04-25T01:53:03.674Z,6.53
2019-04-25T01:55:38.084Z,7.00
2019-04-25T01:58:13.717Z,5.95
2019-04-25T02:00:51.343Z,6.08
2019-04-25T02:03:27.072Z,6.67
2019-04-25T02:06:04.114Z,6.35
2019-04-25T02:08:38.520Z,6.42
2019-04-25T02:11:20.941Z,5.78
2019-04-25T02:13:55.846Z,5.97
2019-04-25T02:16:31.105Z,5.87
2019-04-25T02:19:05.924Z,6.08
2019-04-25T02:21:43.436Z,6.97
2019-04-25T02:24:18.027Z,6.62
2019-04-25T02:26:54.721Z,6.90
2019-04-25T02:29:28.433Z,6.78
2019-04-25T02:32:08.761Z,6.33
2019-04-25T02:34:39.485Z,6.55
2019-04-25T02:37:14.624Z,5.87
2019-04-25T02:39:49.056Z,6.47
2019-04-25T02:42:24.654Z,6.55
2019-04-25T02:45:09.059Z,8.00
2019-04-25T02:48:06.948Z,7.62
2019-04-25T02:51:07.396Z,7.70
2019-04-25T02:53:44.876Z,6.47
2019-04-25T02:56:33.119Z,6.92
2019-04-25T02:58:56.467Z,7.55
2019-04-25T03:01:30.963Z,8.38
2019-04-25T03:04:10.704Z,6.95
2019-04-25T03:06:41.744Z,6.53
2019-04-25T03:09:16.086Z,6.20
2019-04-25T03:11:51.131Z,6.75
2019-04-25T03:14:26.801Z,6.75
2019-04-25T03:17:04.291Z,7.53
2019-04-25T03:19:54.435Z,7.80
2019-04-25T03:22:31.233Z,8.85
2019-04-25T03:25:09.975Z,7.00
2019-04-25T03:27:41.390Z,6.80
2019-04-25T03:30:17.936Z,6.37
2019-04-25T03:32:51.744Z,6.92
2019-04-25T03:35:26.324Z,6.95
2019-04-25T03:38:01.579Z,6.67
2019-04-25T03:40:37.047Z,6.85
2019-04-25T03:43:11.763Z,7.03
2019-04-25T03:45:46.580Z,7.20
2019-04-25T03:48:21.378Z,7.10
2019-04-25T03:50:55.754Z,6.85
2019-04-25T03:53:30.152Z,5.95
2019-04-25T03:56:06.043Z,6.20
2019-04-25T03:58:40.609Z,6.10
2019-04-25T04:01:15.619Z,6.80
2019-04-25T04:03:50.805Z,6.58
2019-04-25T04:06:25.323Z,6.37
2019-04-25T04:08:59.422Z,8.25
2019-04-25T04:11:34.150Z,7.12
2019-04-25T04:14:08.772Z,7.62
2019-04-25T04:17:01.503Z,6.80
2019-04-25T04:19:41.617Z,6.83
2019-04-25T04:22:24.144Z,7.90
2019-04-25T04:25:00.611Z,6.90
2019-04-25T04:27:35.533Z,7.15
2019-04-25T04:30:10.060Z,6.50
2019-04-25T04:32:44.907Z,7.15
2019-04-25T04:35:19.892Z,7.72
2019-04-25T04:37:55.981Z,6.70
2019-04-25T04:40:30.434Z,6.72
2019-04-25T04:43:05.365Z,6.15
2019-04-25T04:45:39.752Z,6.37
2019-04-25T04:48:15.252Z,6.42
2019-04-25T04:50:50.417Z,7.05
2019-04-25T04:53:25.196Z,6.58
2019-04-25T04:55:59.932Z,5.62
2019-04-25T04:58:34.629Z,5.67
2019-04-25T05:01:09.306Z,5.65
2019-04-25T05:04:03.974Z,5.70
2019-04-25T05:07:03.652Z,5.85
2019-04-25T05:09:38.443Z,5.97
2019-04-25T05:12:13.435Z,5.83
2019-04-25T05:14:48.701Z,5.97
2019-04-25T05:17:25.420Z,5.75
2019-04-25T05:20:00.148Z,5.78
2019-04-25T05:22:34.748Z,5.87
2019-04-25T05:25:10.462Z,5.75
2019-04-25T05:27:59.090Z,5.90
2019-04-25T05:30:26.573Z,5.95
2019-04-25T05:33:01.185Z,6.30
2019-04-25T05:35:35.879Z,6.20
2019-04-25T05:38:10.707Z,6.85
2019-04-25T05:40:59.350Z,6.25
2019-04-25T05:43:34.095Z,6.80
2019-04-25T05:46:08.647Z,6.03
2019-04-25T05:48:43.845Z,6.17
2019-04-25T05:51:18.217Z,5.78
2019-04-25T05:53:52.347Z,6.10
2019-04-25T05:56:27.228Z,5.47
2019-04-25T05:59:03.634Z,5.37
2019-04-25T06:01:38.544Z,5.80
2019-04-25T06:04:13.949Z,8.18
2019-04-25T06:06:48.333Z,5.95
2019-04-25T06:09:56.421Z,6.35
2019-04-25T06:12:44.965Z,6.03
2019-04-25T06:15:20.433Z,5.95
2019-04-25T06:18:11.298Z,6.37
2019-04-25T06:20:46.083Z,6.42
2019-04-25T06:23:40.155Z,6.97
2019-04-25T06:26:22.551Z,6.72
2019-04-25T06:28:57.738Z,6.00
2019-04-25T06:31:29.234Z,6.90
2019-04-25T06:34:04.562Z,6.90
2019-04-25T06:36:39.609Z,6.97
2019-04-25T06:39:14.316Z,6.65
2019-04-25T06:41:48.991Z,7.15
2019-04-25T06:44:40.126Z,7.12
2019-04-25T06:47:34.078Z,7.08
2019-04-25T06:50:10.086Z,7.45
2019-04-25T06:52:44.595Z,7.25
2019-04-25T06:55:20.976Z,6.60
2019-04-25T06:57:55.755Z,6.22
2019-04-25T07:00:34.163Z,6.53
2019-04-25T07:03:06.429Z,6.30
2019-04-25T07:05:41.376Z,6.60
2019-04-25T07:08:16.191Z,6.67
2019-04-25T07:10:53.799Z,5.95
2019-04-25T07:13:28.501Z,6.47
2019-04-25T07:16:04.709Z,6.58
2019-04-25T07:18:39.758Z,6.20
2019-04-25T07:21:14.400Z,6.10
2019-04-25T07:23:48.749Z,6.42
2019-04-25T07:26:44.288Z,7.78
2019-04-25T07:29:35.711Z,6.17
2019-04-25T07:32:40.834Z,6.40
2019-04-25T07:35:15.807Z,6.72
2019-04-25T08:07:21.581Z,7.75
2019-04-25T08:09:56.634Z,7.40
2019-04-25T08:12:31.263Z,7.83
2019-04-25T08:15:20.206Z,6.75
2019-04-25T08:18:04.035Z,6.87
2019-04-25T08:20:38.460Z,6.60
2019-04-25T08:23:13.876Z,7.05
2019-04-25T08:25:48.312Z,7.22
2019-04-25T08:28:23.693Z,7.70
2019-04-25T08:30:58.182Z,7.40
2019-04-25T08:33:34.227Z,6.92
2019-04-25T08:36:09.607Z,7.65
2019-04-25T08:38:44.789Z,6.97
2019-04-25T08:41:21.623Z,6.83
2019-04-25T08:43:55.415Z,6.42
2019-04-25T08:46:30.388Z,6.97
2019-04-25T08:49:21.572Z,7.12
2019-04-25T08:51:57.046Z,7.40
2019-04-25T08:54:54.289Z,7.45
2019-04-25T08:57:45.572Z,6.92
2019-04-25T09:00:39.022Z,7.57
2019-04-25T09:03:16.393Z,7.40
2019-04-25T09:05:53.414Z,7.35
2019-04-25T09:08:27.768Z,7.20
2019-04-25T09:11:03.448Z,7.15
2019-04-25T09:13:39.501Z,6.95
2019-04-25T09:16:15.464Z,7.33
2019-04-25T09:18:49.717Z,8.00
2019-04-25T09:21:24.517Z,7.58
2019-04-25T09:24:00.156Z,8.00
2019-04-25T09:26:36.073Z,7.70
2019-04-25T09:29:18.759Z,7.20
2019-04-25T09:31:46.490Z,7.30
2019-04-25T09:34:23.689Z,7.12
2019-04-25T09:36:57.996Z,6.35
2019-04-25T09:39:51.206Z,6.78
2019-04-25T09:42:25.919Z,6.65
2019-04-25T09:45:24.737Z,6.40
2019-04-25T09:48:08.101Z,6.60
2019-04-25T09:50:46.568Z,6.40
2019-04-25T09:53:24.335Z,7.17
2019-04-25T09:56:10.243Z,6.93
2019-04-25T09:59:03.739Z,6.70
2019-04-25T10:01:40.833Z,6.92
2019-04-25T10:04:16.174Z,6.90
2019-04-25T10:07:00.149Z,6.33
2019-04-25T10:09:33.744Z,6.33
2019-04-25T10:12:08.200Z,6.37
2019-04-25T10:15:25.686Z,5.78
2019-04-25T10:18:01.317Z,5.45
2019-04-25T10:20:41.165Z,5.85
2019-04-25T10:23:17.314Z,5.97
2019-04-25T10:25:54.032Z,5.45
2019-04-25T10:28:33.447Z,5.22
2019-04-25T10:31:08.175Z,5.57
2019-04-25T10:33:46.959Z,5.85
2019-04-25T10:36:29.866Z,5.15
2019-04-25T10:39:10.302Z,5.37
2019-04-25T10:41:41.479Z,5.10
2019-04-25T10:44:17.749Z,4.55
2019-04-25T10:46:54.574Z,4.97
2019-04-25T10:49:30.853Z,4.50
2019-04-25T10:52:07.907Z,5.00
2019-04-25T10:54:44.378Z,4.92
2019-04-25T10:57:22.215Z,5.55
2019-04-25T11:00:06.466Z,4.85
2019-04-25T11:02:33.783Z,6.20
2019-04-25T11:05:13.731Z,6.00
2019-04-25T11:07:48.932Z,6.00
2019-04-25T11:10:24.001Z,7.70
2019-04-25T11:12:58.813Z,5.42
2019-04-25T11:15:33.969Z,6.70
2019-04-25T11:18:09.064Z,6.45
2019-04-25T11:20:44.989Z,5.83
2019-04-25T11:23:19.890Z,8.03
2019-04-25T11:25:54.546Z,6.53
2019-04-25T11:28:29.553Z,5.47
2019-04-25T11:31:05.759Z,5.62
2019-04-25T11:33:40.556Z,5.40
2019-04-25T11:36:14.771Z,6.10
2019-04-25T11:39:10.358Z,5.22
2019-04-25T11:41:46.207Z,6.60
2019-04-25T11:44:20.343Z,6.00
2019-04-25T11:46:55.423Z,6.55
2019-04-25T11:49:30.204Z,7.03
2019-04-25T11:52:05.270Z,6.85
2019-04-25T11:54:40.308Z,6.58
2019-04-25T11:57:15.447Z,6.15
2019-04-25T11:59:50.613Z,6.45
2019-04-25T12:02:26.027Z,7.40
2019-04-25T12:05:00.698Z,6.08
2019-04-25T12:07:35.204Z,5.90
2019-04-25T12:10:11.349Z,5.97
2019-04-25T12:12:47.268Z,5.67
2019-04-25T12:15:23.971Z,5.95
2019-04-25T12:17:57.928Z,5.92
2019-04-25T12:20:34.046Z,6.42
2019-04-25T12:23:10.402Z,6.37
2019-04-25T12:25:45.326Z,7.25
2019-04-25T12:28:19.906Z,6.85
2019-04-25T12:30:55.339Z,6.85
2019-04-25T12:33:30.729Z,6.20
2019-04-25T12:36:05.322Z,6.55
2019-04-25T12:38:39.726Z,5.95
2019-04-25T12:41:14.044Z,6.33
2019-04-25T12:43:57.163Z,5.83
2019-04-25T12:46:38.499Z,5.67
2019-04-25T12:49:13.108Z,5.97
2019-04-25T12:51:48.430Z,5.78
2019-04-25T12:54:23.851Z,5.58
2019-04-25T12:56:58.431Z,6.10
2019-04-25T12:59:32.648Z,5.65
2019-04-25T13:02:07.438Z,6.13
2019-04-25T13:04:42.080Z,6.55
2019-04-25T13:07:16.502Z,6.33
2019-04-25T13:09:52.304Z,5.95
2019-04-25T13:12:27.364Z,6.03
2019-04-25T13:15:01.749Z,6.25
2019-04-25T13:17:36.252Z,5.80
2019-04-25T13:20:10.999Z,6.25
2019-04-25T13:22:44.960Z,6.67
2019-04-25T13:25:20.786Z,6.55
2019-04-25T13:28:15.120Z,6.58
2019-04-25T13:31:14.904Z,6.03
2019-04-25T13:34:04.655Z,5.85
2019-04-25T13:36:39.255Z,5.42
2019-04-25T13:39:18.530Z,5.50
2019-04-25T13:41:54.292Z,5.55
2019-04-25T13:44:28.007Z,6.10
2019-04-25T13:47:04.545Z,5.78
2019-04-25T13:49:39.133Z,5.87
2019-04-25T13:52:13.808Z,5.97
2019-04-25T13:54:48.109Z,5.62
2019-04-25T13:57:22.991Z,5.60
2019-04-25T13:59:59.449Z,5.40
2019-04-25T14:02:33.926Z,4.85
2019-04-25T14:05:09.164Z,5.60
2019-04-25T14:07:43.891Z,4.75
2019-04-25T14:10:18.554Z,5.42
2019-04-25T14:12:53.588Z,5.70
2019-04-25T14:15:29.479Z,5.12
2019-04-25T14:18:22.798Z,5.37
2019-04-25T14:21:05.928Z,8.63
2019-04-25T14:23:40.580Z,10.40
2019-04-25T14:26:15.055Z,11.60
2019-04-25T14:28:50.446Z,12.58
2019-04-25T14:31:41.241Z,10.65
2019-04-25T14:34:05.030Z,9.28
2019-04-25T14:36:39.738Z,8.55
2019-04-25T14:39:15.088Z,7.75
2019-04-25T14:41:50.654Z,6.33
2019-04-25T14:44:26.022Z,5.65
2019-04-25T14:47:00.519Z,5.80
2019-04-25T14:49:35.270Z,6.65
2019-04-25T14:52:09.446Z,5.77
2019-04-25T14:55:05.259Z,5.78
2019-04-25T14:57:39.785Z,5.97
2019-04-25T15:00:22.753Z,5.60
2019-04-25T15:02:57.322Z,5.12
2019-04-25T15:05:31.628Z,5.55
2019-04-25T15:08:06.103Z,5.28
2019-04-25T15:10:41.273Z,5.60
2019-04-25T15:13:15.766Z,5.42
2019-04-25T15:15:50.517Z,5.42
2019-04-25T15:18:24.925Z,5.47
2019-04-25T15:20:59.493Z,5.60
2019-04-25T15:23:34.267Z,6.35
2019-04-25T15:26:09.568Z,6.25
2019-04-25T15:28:45.279Z,6.20
2019-04-25T15:31:20.661Z,5.97
2019-04-25T15:33:54.833Z,5.62
2019-04-25T15:36:53.424Z,6.37
2019-04-25T15:39:45.879Z,5.97
2019-04-25T15:42:37.377Z,5.72
2019-04-25T15:45:28.577Z,6.22
2019-04-25T15:48:04.056Z,5.92
2019-04-25T15:50:38.386Z,6.42
2019-04-25T15:53:12.625Z,7.33
2019-04-25T15:55:47.111Z,7.90
2019-04-25T15:58:21.160Z,7.72
2019-04-25T16:00:55.841Z,7.87
2019-04-25T16:03:30.776Z,7.22
2019-04-25T16:06:05.454Z,7.08
2019-04-25T16:08:40.917Z,7.70
2019-04-25T16:11:15.445Z,8.35
2019-04-25T16:13:50.135Z,10.48
2019-04-25T16:16:24.449Z,10.55
2019-04-25T16:18:58.927Z,10.10
2019-04-25T16:21:35.333Z,10.70
2019-04-25T16:24:10.105Z,10.90
2019-04-25T16:26:44.597Z,12.03
2019-04-25T16:29:19.149Z,12.33
2019-04-25T16:31:53.678Z,12.58
2019-04-25T16:34:29.586Z,12.95
2019-04-25T16:37:05.015Z,11.83
2019-04-25T16:39:40.524Z,12.15
2019-04-25T16:42:15.492Z,11.28
2019-04-25T16:44:50.056Z,10.00
2019-04-25T16:47:26.372Z,7.17
2019-04-25T16:50:01.183Z,6.65
2019-04-25T16:52:35.903Z,5.87
2019-04-25T16:55:13.397Z,5.17
2019-04-25T16:57:48.096Z,5.28
2019-04-25T17:00:47.399Z,5.30
2019-04-25T17:03:23.170Z,5.08
2019-04-25T17:05:57.534Z,5.33
2019-04-25T17:08:32.438Z,5.87
2019-04-25T17:11:07.629Z,5.67
2019-04-25T17:13:48.213Z,5.80
2019-04-25T17:16:53.323Z,5.53
2019-04-25T17:19:48.503Z,5.10
2019-04-25T17:22:23.808Z,6.10
2019-04-25T17:24:58.246Z,5.12
2019-04-25T17:27:33.434Z,5.42
2019-04-25T17:30:07.543Z,4.92
2019-04-25T17:33:04.770Z,4.65
2019-04-25T17:35:55.973Z,4.95
2019-04-25T17:38:40.210Z,5.53
2019-04-25T17:41:15.088Z,6.35
2019-04-25T17:43:50.788Z,5.80
2019-04-25T17:46:25.322Z,5.47
2019-04-25T17:48:59.956Z,6.00
2019-04-25T17:51:34.776Z,5.45
2019-04-25T17:54:09.103Z,5.83
2019-04-25T17:56:43.442Z,5.30
2019-04-25T17:59:18.155Z,5.37
2019-04-25T18:01:53.028Z,5.37
2019-04-25T18:04:27.479Z,5.55
2019-04-25T18:07:02.403Z,5.55
2019-04-25T18:09:36.935Z,5.35
2019-04-25T18:12:11.330Z,5.58
2019-04-25T18:14:47.391Z,5.65
2019-04-25T18:17:22.266Z,4.83
2019-04-25T18:20:00.785Z,5.47
2019-04-25T18:22:59.749Z,4.83
2019-04-25T18:25:48.400Z,5.40
2019-04-25T18:28:28.641Z,4.58
2019-04-25T18:31:03.926Z,5.22
2019-04-25T18:33:39.326Z,6.10
2019-04-25T18:36:35.031Z,5.42
2019-04-25T18:39:38.621Z,4.83
2019-04-25T18:42:30.344Z,4.20
2019-04-25T18:45:05.376Z,4.67
2019-04-25T18:47:40.355Z,4.67
2019-04-25T18:50:16.258Z,4.67
2019-04-25T18:53:13.201Z,4.85
2019-04-25T18:56:00.101Z,4.90
2019-04-25T18:58:59.700Z,5.25
2019-04-25T19:01:47.991Z,4.40
2019-04-25T19:04:38.328Z,4.87
2019-04-25T19:07:22.073Z,4.47
2019-04-25T19:09:48.474Z,4.80
2019-04-25T19:12:23.767Z,5.30
2019-04-25T19:14:58.203Z,5.28
2019-04-25T19:17:32.576Z,5.67
2019-04-25T19:20:07.918Z,5.25
2019-04-25T19:22:43.609Z,5.15
2019-04-25T19:25:18.268Z,5.35
2019-04-25T19:27:53.503Z,5.33
2019-04-25T19:30:27.608Z,5.58
2019-04-25T19:33:03.301Z,5.37
2019-04-25T19:35:39.326Z,5.90
2019-04-25T19:38:14.472Z,5.47
2019-04-25T19:40:57.140Z,5.83
2019-04-25T19:43:44.476Z,5.92
2019-04-25T19:46:20.048Z,6.03
2019-04-25T19:48:55.459Z,5.97
2019-04-25T19:51:30.166Z,6.33
2019-04-25T19:54:04.741Z,6.40
2019-04-25T19:56:39.162Z,7.67
2019-04-25T19:59:14.864Z,6.80
2019-04-25T20:01:50.594Z,7.08
2019-04-25T20:04:41.828Z,6.85
2019-04-25T20:07:27.352Z,7.33
2019-04-25T20:10:29.274Z,7.17
2019-04-25T20:13:04.474Z,10.38
2019-04-25T20:15:40.977Z,12.60
2019-04-25T20:18:15.539Z,13.22
2019-04-25T20:20:50.017Z,12.60
2019-04-25T20:23:25.059Z,14.20
2019-04-25T20:25:59.419Z,12.37
2019-04-25T20:28:35.000Z,13.00
2019-04-25T20:31:09.686Z,11.50
2019-04-25T20:33:45.446Z,13.15
2019-04-25T20:36:20.927Z,14.85
2019-04-25T20:38:55.443Z,13.58
2019-04-25T20:41:30.012Z,11.80
2019-04-25T20:44:05.678Z,12.10
2019-04-25T20:46:40.225Z,10.32
2019-04-25T20:49:14.873Z,11.53
2019-04-25T20:51:50.540Z,13.55
2019-04-25T20:54:25.662Z,10.50
2019-04-25T20:57:00.744Z,10.08
2019-04-25T20:59:35.007Z,11.08
2019-04-25T21:02:11.095Z,10.38
2019-04-25T21:04:45.532Z,8.55
2019-04-25T21:07:19.984Z,8.73
2019-04-25T21:09:55.161Z,8.60
2019-04-25T21:12:29.637Z,8.25
2019-04-25T21:15:24.885Z,8.63
2019-04-25T21:18:20.401Z,7.55
2019-04-25T21:20:55.088Z,7.67
2019-04-25T21:23:29.743Z,7.67
2019-04-25T21:26:05.190Z,7.80
2019-04-25T21:28:39.843Z,7.67
2019-04-25T21:31:16.188Z,7.05
2019-04-25T21:33:50.764Z,7.05
2019-04-25T21:36:26.792Z,7.55
2019-04-25T21:39:03.915Z,7.67
2019-04-25T21:41:51.432Z,6.95
2019-04-25T21:44:27.179Z,8.38
2019-04-25T21:47:03.212Z,6.83
2019-04-25T21:49:37.926Z,6.37
2019-04-25T21:52:13.725Z,6.17
2019-04-25T21:54:48.722Z,6.95
2019-04-25T21:57:24.086Z,6.28
2019-04-25T22:00:06.021Z,7.25
2019-04-25T22:02:36.398Z,7.87
2019-04-25T22:05:12.896Z,7.75
2019-04-25T22:07:47.625Z,7.28
2019-04-25T22:10:21.999Z,7.42
2019-04-25T22:13:11.338Z,6.95
2019-04-25T22:15:34.629Z,7.67
2019-04-25T22:18:10.369Z,6.62
2019-04-25T22:20:44.722Z,6.65
2019-04-25T22:23:19.410Z,6.58
2019-04-25T22:25:56.301Z,6.37
2019-04-25T22:28:32.158Z,6.03
2019-04-25T22:31:11.055Z,6.53
2019-04-25T22:34:03.982Z,6.22
2019-04-25T22:36:38.800Z,6.35
2019-04-25T22:39:15.828Z,6.67
2019-04-25T22:41:50.763Z,6.87
2019-04-25T22:44:26.217Z,6.30
2019-04-25T22:47:00.915Z,6.80
2019-04-25T22:49:36.521Z,8.60
2019-04-25T22:52:16.290Z,7.35
2019-04-25T22:54:51.078Z,6.37
2019-04-25T22:57:25.963Z,7.45
2019-04-25T23:00:01.599Z,6.55
2019-04-25T23:02:45.403Z,7.92
2019-04-25T23:05:30.878Z,7.55
2019-04-25T23:08:05.959Z,7.17
2019-04-25T23:10:40.493Z,6.87
2019-04-25T23:13:15.007Z,7.17
2019-04-25T23:15:50.724Z,6.53
2019-04-25T23:18:25.378Z,6.08
2019-04-25T23:21:01.184Z,8.87
2019-04-25T23:23:35.879Z,6.20
2019-04-25T23:26:28.467Z,5.17
2019-04-25T23:29:04.767Z,5.90
2019-04-25T23:31:39.884Z,6.70
2019-04-25T23:34:15.487Z,5.80
2019-04-25T23:36:51.878Z,6.15
2019-04-25T23:39:26.591Z,7.08
2019-04-25T23:42:01.095Z,8.28
2019-04-25T23:44:35.405Z,5.58
2019-04-25T23:47:10.131Z,5.97
2019-04-25T23:49:44.610Z,5.78
2019-04-25T23:52:19.620Z,6.05
2019-04-25T23:54:54.310Z,6.15
2019-04-25T23:57:31.355Z,6.55
